createdAt,value
2022-12-05T00:01:21.450Z,25.77
2022-12-05T00:04:23.316Z,25.55
2022-12-05T00:07:25.104Z,31.55
2022-12-05T00:10:26.862Z,41.53
2022-12-05T00:13:28.739Z,40.03
2022-12-05T00:16:32.897Z,46.95
2022-12-05T00:19:34.863Z,47.80
2022-12-05T00:22:38.467Z,46.42
2022-12-05T00:25:40.786Z,49.05
2022-12-05T00:28:42.986Z,44.72
2022-12-05T00:31:45.018Z,33.00
2022-12-05T00:34:46.837Z,29.33
2022-12-05T00:37:48.682Z,27.10
2022-12-05T00:40:50.421Z,25.95
2022-12-05T00:43:53.973Z,25.15
2022-12-05T00:46:55.671Z,25.95
2022-12-05T00:49:57.691Z,24.67
2022-12-05T00:52:59.613Z,26.15
2022-12-05T00:56:07.633Z,25.85
2022-12-05T00:59:12.581Z,25.55
2022-12-05T01:02:14.738Z,26.50
2022-12-05T01:05:16.630Z,25.23
2022-12-05T01:08:18.444Z,25.77
2022-12-05T01:11:21.176Z,25.30
2022-12-05T01:14:25.639Z,25.80
2022-12-05T01:17:27.562Z,26.08
2022-12-05T01:20:29.580Z,25.50
2022-12-05T01:23:31.370Z,26.20
2022-12-05T01:26:33.320Z,24.27
2022-12-05T01:29:35.382Z,25.05
2022-12-05T01:32:37.406Z,25.27
2022-12-05T01:35:40.912Z,24.98
2022-12-05T01:38:43.251Z,26.92
2022-12-05T01:41:48.245Z,26.10
2022-12-05T01:44:52.911Z,26.92
2022-12-05T01:47:55.204Z,26.52
2022-12-05T01:50:58.321Z,26.33
2022-12-05T01:54:01.272Z,27.45
2022-12-05T01:57:06.491Z,27.83
2022-12-05T02:00:17.915Z,26.40
2022-12-05T02:03:20.942Z,26.58
2022-12-05T02:06:23.903Z,26.35
2022-12-05T02:09:25.674Z,26.02
2022-12-05T02:12:27.773Z,27.00
2022-12-05T02:15:56.851Z,26.60
2022-12-05T02:19:18.620Z,27.73
2022-12-05T02:22:46.478Z,26.23
2022-12-05T02:26:25.508Z,25.60
2022-12-05T02:29:38.825Z,25.38
2022-12-05T02:33:17.602Z,26.40
2022-12-05T02:36:39.861Z,26.38
2022-12-05T02:39:54.857Z,26.50
2022-12-05T02:43:02.544Z,27.08
2022-12-05T02:46:12.976Z,28.92
2022-12-05T02:49:23.516Z,25.40
2022-12-05T02:52:26.658Z,27.13
2022-12-05T02:55:30.705Z,26.77
2022-12-05T02:58:37.853Z,27.17
2022-12-05T03:01:40.127Z,26.77
2022-12-05T03:04:41.940Z,26.52
2022-12-05T03:07:47.676Z,25.33
2022-12-05T03:10:51.298Z,26.55
2022-12-05T03:13:57.767Z,24.50
2022-12-05T03:17:05.878Z,25.00
2022-12-05T03:20:32.497Z,23.45
2022-12-05T03:23:42.862Z,23.42
2022-12-05T03:27:08.717Z,25.42
2022-12-05T03:30:14.409Z,24.67
2022-12-05T03:33:27.788Z,24.90
2022-12-05T03:36:37.598Z,24.48
2022-12-05T03:39:45.192Z,23.50
2022-12-05T03:43:16.880Z,24.38
2022-12-05T03:46:32.415Z,24.38
2022-12-05T03:49:58.415Z,24.42
2022-12-05T03:53:21.061Z,24.40
2022-12-05T03:56:35.156Z,24.85
2022-12-05T04:00:00.643Z,23.77
2022-12-05T04:03:17.911Z,23.40
2022-12-05T04:06:31.809Z,24.10
2022-12-05T04:09:49.387Z,24.33
2022-12-05T04:12:55.047Z,27.73
2022-12-05T04:16:23.292Z,30.60
2022-12-05T04:19:25.246Z,27.25
2022-12-05T04:22:27.865Z,26.73
2022-12-05T04:25:39.662Z,27.50
2022-12-05T04:28:41.330Z,26.85
2022-12-05T04:31:47.810Z,25.45
2022-12-05T04:34:55.840Z,26.77
2022-12-05T04:38:22.185Z,25.20
2022-12-05T04:41:32.395Z,25.25
2022-12-05T04:44:40.768Z,25.77
2022-12-05T04:47:47.926Z,24.65
2022-12-05T04:50:53.448Z,25.55
2022-12-05T04:54:02.055Z,24.23
2022-12-05T04:57:25.752Z,23.17
2022-12-05T05:00:30.289Z,23.23
2022-12-05T05:03:42.679Z,22.08
2022-12-05T05:06:44.515Z,22.33
2022-12-05T05:09:46.457Z,23.75
2022-12-05T05:12:51.327Z,22.40
2022-12-05T05:15:53.253Z,22.73
2022-12-05T05:18:55.565Z,22.33
2022-12-05T05:21:57.573Z,20.90
2022-12-05T05:24:59.906Z,21.42
2022-12-05T05:28:01.955Z,20.90
2022-12-05T05:31:04.801Z,20.85
2022-12-05T05:34:09.711Z,21.10
2022-12-05T05:37:12.034Z,19.67
2022-12-05T05:40:14.603Z,20.80
2022-12-05T05:43:16.408Z,20.75
2022-12-05T05:46:20.368Z,19.17
2022-12-05T05:49:22.206Z,20.50
2022-12-05T05:52:24.223Z,22.92
2022-12-05T05:55:26.041Z,23.13
2022-12-05T05:58:27.758Z,23.83
2022-12-05T06:01:30.435Z,22.02
2022-12-05T06:04:34.458Z,19.40
2022-12-05T06:07:36.413Z,19.00
2022-12-05T06:10:39.279Z,19.60
2022-12-05T06:13:41.492Z,14.50
2022-12-05T06:16:43.436Z,19.20
2022-12-05T06:19:45.139Z,20.30
2022-12-05T06:22:46.822Z,22.40
2022-12-05T06:25:53.757Z,21.90
2022-12-05T06:28:55.491Z,19.90
2022-12-05T06:31:57.271Z,19.77
2022-12-05T06:34:59.340Z,20.95
2022-12-05T06:38:01.358Z,20.92
2022-12-05T06:41:07.913Z,22.73
2022-12-05T06:44:10.609Z,22.23
2022-12-05T06:47:12.386Z,22.27
2022-12-05T06:50:14.234Z,21.92
2022-12-05T06:53:16.050Z,21.92
2022-12-05T06:56:19.868Z,18.95
2022-12-05T06:59:21.634Z,18.88
2022-12-05T07:02:23.367Z,18.13
2022-12-05T07:05:25.155Z,18.67
2022-12-05T07:08:27.042Z,18.23
2022-12-05T07:11:29.269Z,18.85
2022-12-05T07:14:46.973Z,19.33
2022-12-05T07:17:50.120Z,17.65
2022-12-05T07:21:12.228Z,17.65
2022-12-05T07:24:14.907Z,18.37
2022-12-05T07:27:20.614Z,18.17
2022-12-05T07:30:25.461Z,17.98
2022-12-05T07:33:27.332Z,16.92
2022-12-05T07:36:29.193Z,18.13
2022-12-05T07:39:31.096Z,18.85
2022-12-05T07:42:32.847Z,18.73
2022-12-05T07:45:35.763Z,18.70
2022-12-05T07:48:37.901Z,20.48
2022-12-05T07:51:39.827Z,19.85
2022-12-05T07:54:41.762Z,19.92
2022-12-05T07:57:43.630Z,20.45
2022-12-05T08:00:45.381Z,20.55
2022-12-05T08:03:48.207Z,19.88
2022-12-05T08:06:50.104Z,74.90
2022-12-05T08:09:52.063Z,44.10
2022-12-05T08:12:53.874Z,24.40
2022-12-05T08:15:55.568Z,20.48
2022-12-05T08:19:03.181Z,22.38
2022-12-05T08:22:05.015Z,22.77
2022-12-05T08:25:07.509Z,22.95
2022-12-05T08:28:09.366Z,18.27
2022-12-05T08:31:14.890Z,20.23
2022-12-05T08:34:18.887Z,20.10
2022-12-05T08:37:20.704Z,19.98
2022-12-05T08:40:22.533Z,20.55
2022-12-05T08:43:24.708Z,21.48
2022-12-05T08:46:27.087Z,21.70
2022-12-05T08:49:28.943Z,22.07
2022-12-05T08:52:30.759Z,22.27
2022-12-05T08:55:37.639Z,22.92
2022-12-05T08:58:40.557Z,22.45
2022-12-05T09:01:42.497Z,21.40
2022-12-05T09:04:47.284Z,23.48
2022-12-05T09:07:51.412Z,23.08
2022-12-05T09:10:53.189Z,25.55
2022-12-05T09:13:57.902Z,23.77
2022-12-05T09:17:00.941Z,22.55
2022-12-05T09:20:03.726Z,22.55
2022-12-05T09:23:05.457Z,23.65
2022-12-05T09:26:09.950Z,23.35
2022-12-05T09:29:17.119Z,24.13
2022-12-05T09:32:19.399Z,24.67
2022-12-05T09:35:21.260Z,27.35
2022-12-05T09:38:23.707Z,27.00
2022-12-05T09:42:02.911Z,26.17
2022-12-05T09:45:25.856Z,25.13
2022-12-05T09:48:28.204Z,27.07
2022-12-05T09:51:30.562Z,20.10
2022-12-05T09:54:32.953Z,28.37
2022-12-05T09:57:38.261Z,26.00
2022-12-05T10:00:40.987Z,26.73
2022-12-05T10:03:47.454Z,19.08
2022-12-05T10:07:16.922Z,25.23
2022-12-05T10:10:54.130Z,23.48
2022-12-05T10:13:59.125Z,23.33
2022-12-05T10:17:10.831Z,22.88
2022-12-05T10:20:18.199Z,22.55
2022-12-05T10:24:03.332Z,22.70
2022-12-05T10:27:08.672Z,23.10
2022-12-05T10:30:22.532Z,23.00
2022-12-05T10:33:26.179Z,21.65
2022-12-05T10:36:27.983Z,21.83
2022-12-05T10:39:29.750Z,22.05
2022-12-05T10:42:35.629Z,21.65
2022-12-05T10:45:45.946Z,23.42
2022-12-05T10:48:47.935Z,22.10
2022-12-05T10:51:50.562Z,22.48
2022-12-05T10:55:00.484Z,22.02
2022-12-05T10:58:26.122Z,23.90
2022-12-05T11:01:28.691Z,22.50
2022-12-05T11:04:40.948Z,22.85
2022-12-05T11:07:49.538Z,22.55
2022-12-05T11:11:02.466Z,21.88
2022-12-05T11:14:07.162Z,22.45
2022-12-05T11:17:33.158Z,22.77
2022-12-05T11:20:37.174Z,24.23
2022-12-05T11:23:39.869Z,21.48
2022-12-05T11:26:42.808Z,21.40
2022-12-05T11:29:53.916Z,37.53
2022-12-05T11:33:18.364Z,35.95
2022-12-05T11:36:23.612Z,27.63
2022-12-05T11:39:26.012Z,23.63
2022-12-05T11:42:40.638Z,22.40
2022-12-05T11:45:45.590Z,21.45
2022-12-05T11:49:12.096Z,19.85
2022-12-05T11:52:19.978Z,18.85
2022-12-05T11:55:44.738Z,19.73
2022-12-05T11:59:17.043Z,18.50
2022-12-05T12:02:37.848Z,19.08
2022-12-05T12:05:42.640Z,18.77
2022-12-05T12:09:12.199Z,18.75
2022-12-05T12:12:44.095Z,17.70
2022-12-05T12:15:51.834Z,16.70
2022-12-05T12:19:02.385Z,17.35
2022-12-05T12:22:46.994Z,17.13
2022-12-05T12:25:54.264Z,17.20
2022-12-05T12:29:09.783Z,18.55
2022-12-05T12:32:37.263Z,17.65
2022-12-05T12:35:55.570Z,19.48
2022-12-05T12:39:22.079Z,18.17
2022-12-05T12:42:47.167Z,20.83
2022-12-05T12:46:11.216Z,22.92
2022-12-05T12:49:55.174Z,22.13
2022-12-05T12:53:21.611Z,21.27
2022-12-05T12:56:59.636Z,21.27
2022-12-05T13:00:29.160Z,20.40
2022-12-05T13:03:38.446Z,20.55
2022-12-05T13:06:40.428Z,20.08
2022-12-05T13:10:02.417Z,18.30
2022-12-05T13:13:06.215Z,18.35
2022-12-05T13:16:09.777Z,18.20
2022-12-05T13:19:24.006Z,18.00
2022-12-05T13:22:28.311Z,17.88
2022-12-05T13:25:34.047Z,17.60
2022-12-05T13:28:57.757Z,18.60
2022-12-05T13:32:03.818Z,18.88
2022-12-05T13:35:39.031Z,19.23
2022-12-05T13:39:00.402Z,18.92
2022-12-05T13:42:17.572Z,16.30
2022-12-05T13:45:21.347Z,14.13
2022-12-05T13:48:26.164Z,14.30
2022-12-05T13:51:31.436Z,14.90
2022-12-05T13:54:35.726Z,15.77
2022-12-05T13:57:40.377Z,17.10
2022-12-05T14:00:42.137Z,16.63
2022-12-05T14:04:02.131Z,15.70
2022-12-05T14:07:03.953Z,15.00
2022-12-05T14:10:06.829Z,16.27
2022-12-05T14:13:18.032Z,15.98
2022-12-05T14:16:26.094Z,14.43
2022-12-05T14:20:09.534Z,15.30
2022-12-05T14:23:23.443Z,13.63
2022-12-05T14:26:43.885Z,13.90
2022-12-05T14:30:05.371Z,14.75
2022-12-05T14:33:17.815Z,14.48
2022-12-05T14:36:30.338Z,14.95
2022-12-05T14:39:45.128Z,14.38
2022-12-05T14:42:54.496Z,13.63
2022-12-05T14:46:28.948Z,14.10
2022-12-05T14:49:38.178Z,14.52
2022-12-05T14:52:41.909Z,14.05
2022-12-05T14:55:45.201Z,14.05
2022-12-05T15:02:05.048Z,14.07
2022-12-05T15:05:30.448Z,14.75
2022-12-05T15:08:45.144Z,14.48
2022-12-05T15:11:47.104Z,13.95
2022-12-05T15:15:01.223Z,13.95
2022-12-05T15:18:32.776Z,13.50
2022-12-05T15:21:46.661Z,13.40
2022-12-05T15:24:48.417Z,13.07
2022-12-05T15:27:58.867Z,13.30
2022-12-05T15:31:00.810Z,13.27
2022-12-05T15:34:23.897Z,12.88
2022-12-05T15:38:13.605Z,12.70
2022-12-05T15:41:18.309Z,12.10
2022-12-05T15:44:26.867Z,13.13
2022-12-05T15:47:29.261Z,14.30
2022-12-05T15:50:36.007Z,13.68
2022-12-05T15:53:44.834Z,13.93
2022-12-05T15:56:55.815Z,13.10
2022-12-05T16:00:04.243Z,13.63
2022-12-05T16:03:21.924Z,15.50
2022-12-05T16:06:38.473Z,15.63
2022-12-05T16:09:43.216Z,15.00
2022-12-05T16:12:45.282Z,14.27
2022-12-05T16:15:52.854Z,16.05
2022-12-05T16:19:02.988Z,15.93
2022-12-05T16:22:15.911Z,13.88
2022-12-05T16:25:39.868Z,14.05
2022-12-05T16:28:41.685Z,12.57
2022-12-05T16:31:44.652Z,13.55
2022-12-05T16:34:46.442Z,13.70
2022-12-05T16:37:48.381Z,13.05
2022-12-05T16:40:50.127Z,13.43
2022-12-05T16:43:54.009Z,14.30
2022-12-05T16:46:56.803Z,13.45
2022-12-05T16:49:58.950Z,13.40
2022-12-05T16:53:14.973Z,15.35
2022-12-05T16:56:23.347Z,14.02
2022-12-05T16:59:32.662Z,14.07
2022-12-05T17:02:34.690Z,13.32
2022-12-05T17:05:36.489Z,12.90
2022-12-05T17:08:38.280Z,13.30
2022-12-05T17:11:43.086Z,12.88
2022-12-05T17:14:45.779Z,12.65
2022-12-05T17:17:47.783Z,13.15
2022-12-05T17:20:53.276Z,12.70
2022-12-05T17:23:55.458Z,13.65
2022-12-05T17:26:57.367Z,11.57
2022-12-05T17:29:59.619Z,12.90
2022-12-05T17:33:02.103Z,12.97
2022-12-05T17:36:04.063Z,13.75
2022-12-05T17:39:05.762Z,13.05
2022-12-05T17:42:09.252Z,15.45
2022-12-05T17:45:16.068Z,15.25
2022-12-05T17:48:18.123Z,16.17
2022-12-05T17:51:20.580Z,15.38
2022-12-05T17:54:22.491Z,15.53
2022-12-05T17:57:24.237Z,14.52
2022-12-05T18:00:26.012Z,13.98
2022-12-05T18:03:28.456Z,13.52
2022-12-05T18:06:30.505Z,14.03
2022-12-05T18:09:32.369Z,14.90
2022-12-05T18:12:37.329Z,14.52
2022-12-05T18:15:42.932Z,14.20
2022-12-05T18:18:45.391Z,14.32
2022-12-05T18:21:47.278Z,13.02
2022-12-05T18:24:49.078Z,13.88
2022-12-05T18:27:51.173Z,13.80
2022-12-05T18:31:06.147Z,14.48
2022-12-05T18:34:07.987Z,14.70
2022-12-05T18:37:10.705Z,14.15
2022-12-05T18:40:13.365Z,13.05
2022-12-05T18:43:15.175Z,13.13
2022-12-05T18:46:16.935Z,13.52
2022-12-05T18:49:18.730Z,13.77
2022-12-05T18:52:21.452Z,12.75
2022-12-05T18:55:44.976Z,13.48
2022-12-05T18:58:45.478Z,14.30
2022-12-05T19:01:47.941Z,14.55
2022-12-05T19:04:49.734Z,14.63
2022-12-05T19:07:54.819Z,14.95
2022-12-05T19:10:56.778Z,15.20
2022-12-05T19:14:00.502Z,15.20
2022-12-05T19:17:02.563Z,15.68
2022-12-05T19:20:05.050Z,15.60
2022-12-05T19:23:06.783Z,15.57
2022-12-05T19:26:11.604Z,15.73
2022-12-05T19:29:14.721Z,15.18
2022-12-05T19:32:16.639Z,15.27
2022-12-05T19:35:18.552Z,16.25
2022-12-05T19:38:20.472Z,15.23
2022-12-05T19:41:27.918Z,15.18
2022-12-05T19:44:30.784Z,14.45
2022-12-05T19:47:32.745Z,15.52
2022-12-05T19:50:34.690Z,14.63
2022-12-05T19:53:38.624Z,14.95
2022-12-05T19:56:40.543Z,15.60
2022-12-05T19:59:42.370Z,14.93
2022-12-05T20:02:45.939Z,14.15
2022-12-05T20:05:58.622Z,15.57
2022-12-05T20:09:01.577Z,15.35
2022-12-05T20:12:04.376Z,15.35
2022-12-05T20:15:06.813Z,13.52
2022-12-05T20:18:08.694Z,13.77
2022-12-05T20:21:13.769Z,14.63
2022-12-05T20:24:15.673Z,13.15
2022-12-05T20:27:17.962Z,13.63
2022-12-05T20:30:19.733Z,13.68
2022-12-05T20:36:28.619Z,14.40
2022-12-05T20:39:30.424Z,15.23
2022-12-05T20:42:32.242Z,14.75
2022-12-05T20:45:34.537Z,15.27
2022-12-05T20:48:36.895Z,14.45
2022-12-05T20:51:41.908Z,14.07
2022-12-05T20:54:43.665Z,14.02
2022-12-05T20:57:45.339Z,14.38
2022-12-05T21:00:47.106Z,13.90
2022-12-05T21:03:50.475Z,13.25
2022-12-05T21:09:54.030Z,14.57
2022-12-05T21:12:55.931Z,14.55
2022-12-05T21:15:57.924Z,14.80
2022-12-05T21:19:00.440Z,15.73
2022-12-05T21:22:02.376Z,15.00
2022-12-05T21:25:04.387Z,14.65
2022-12-05T21:28:06.209Z,14.05
2022-12-05T21:31:24.653Z,14.40
2022-12-05T21:34:26.725Z,14.85
2022-12-05T21:37:28.509Z,15.23
2022-12-05T21:40:30.385Z,14.43
2022-12-05T21:43:33.921Z,15.27
2022-12-05T21:46:36.397Z,15.63
2022-12-05T21:49:41.766Z,16.80
2022-12-05T21:52:58.884Z,15.70
2022-12-05T21:56:18.779Z,15.38
2022-12-05T21:59:20.568Z,14.50
2022-12-05T22:02:22.474Z,15.52
2022-12-05T22:05:24.451Z,14.77
2022-12-05T22:08:26.484Z,15.25
2022-12-05T22:11:28.541Z,15.43
2022-12-05T22:14:30.388Z,14.52
2022-12-05T22:17:32.347Z,15.05
2022-12-05T22:20:34.359Z,14.18
2022-12-05T22:23:36.362Z,14.40
2022-12-05T22:26:38.441Z,14.90
2022-12-05T22:32:46.280Z,14.50
2022-12-05T22:35:53.341Z,15.70
2022-12-05T22:39:01.112Z,15.43
2022-12-05T22:42:11.958Z,15.32
2022-12-05T22:45:22.304Z,14.77
2022-12-05T22:48:29.343Z,14.40
2022-12-05T22:51:32.557Z,14.73
2022-12-05T22:54:34.356Z,15.75
2022-12-05T22:57:36.039Z,15.63
2022-12-05T23:00:38.219Z,16.02
2022-12-05T23:03:41.274Z,15.85
2022-12-05T23:06:43.262Z,17.20
2022-12-05T23:09:45.146Z,17.48
2022-12-05T23:12:47.091Z,16.77
2022-12-05T23:15:54.324Z,15.23
2022-12-05T23:19:01.954Z,16.35
2022-12-05T23:22:03.855Z,17.25
2022-12-05T23:25:06.527Z,16.20
2022-12-05T23:28:09.265Z,17.08
2022-12-05T23:31:12.271Z,16.35
2022-12-05T23:34:29.476Z,16.90
2022-12-05T23:37:31.362Z,16.08
2022-12-05T23:40:33.520Z,16.58
2022-12-05T23:43:52.067Z,15.80
2022-12-05T23:47:00.215Z,16.08
2022-12-05T23:50:08.643Z,17.63
2022-12-05T23:53:19.870Z,16.75
2022-12-05T23:56:32.920Z,16.30
2022-12-05T23:59:39.248Z,17.33
